Time;durP1;ratioP1;P1;durP2;ratioP2;P2;SDS_P1;SDS_P2;PMS_P1;PMS_P2;Temp;Humidity;BMP_temperature;BMP_pressure;BME280_temperature;BME280_humidity;BME280_pressure;Samples;Min_cycle;Max_cycle;Signal;HPM_P1;HPM_P2
2021/05/06 00:34:18;;;;;;;1.35;0.30;;;3.80;91.60;;;;;;4923727;28;20040;-85
2021/05/06 00:36:46;;;;;;;0.10;0.10;;;3.70;91.10;;;;;;4939310;29;20043;-85
2021/05/06 00:39:16;;;;;;;1.60;0.30;;;3.60;91.10;;;;;;4951213;28;20055;-85
2021/05/06 00:41:54;;;;;;;0.10;0.10;;;3.60;91.20;;;;;;4946915;29;20059;-82
2021/05/06 01:01:08;;;;;;;0.73;0.50;;;3.70;90.30;;;;;;4946203;28;20046;-84
2021/05/06 01:03:46;;;;;;;0.73;0.38;;;3.70;90.40;;;;;;4948603;28;20378;-87
2021/05/06 01:06:17;;;;;;;2.10;0.75;;;3.70;90.60;;;;;;4950889;28;20051;-86
2021/05/06 01:08:48;;;;;;;0.60;0.25;;;3.70;90.80;;;;;;4925011;29;20471;-85
2021/05/06 01:11:22;;;;;;;0.80;0.38;;;3.70;91.00;;;;;;4968142;28;20122;-85
2021/05/06 01:13:49;;;;;;;2.75;0.50;;;3.70;90.90;;;;;;4940544;29;20047;-86
2021/05/06 01:16:18;;;;;;;0.90;0.22;;;3.80;90.90;;;;;;4931010;28;20051;-84
2021/05/06 01:18:45;;;;;;;1.27;0.50;;;3.90;90.80;;;;;;4946098;29;20059;-85
2021/05/06 01:21:14;;;;;;;1.27;0.57;;;3.90;90.70;;;;;;4946775;28;20373;-85
2021/05/06 01:23:44;;;;;;;0.95;0.30;;;4.00;90.90;;;;;;4934665;29;20531;-83
2021/05/06 01:26:14;;;;;;;0.88;0.63;;;4.00;90.90;;;;;;4944479;28;20055;-83
2021/05/06 01:28:45;;;;;;;2.92;0.73;;;4.00;90.70;;;;;;4923765;29;20330;-85
2021/05/06 01:31:18;;;;;;;0.63;0.38;;;4.00;90.50;;;;;;4965790;28;20098;-84
2021/05/06 01:33:49;;;;;;;1.08;0.40;;;4.00;90.00;;;;;;4927313;29;20239;-86
2021/05/06 01:36:22;;;;;;;0.55;0.35;;;4.00;89.80;;;;;;4934828;28;20044;-83
2021/05/06 01:39:06;;;;;;;1.38;0.40;;;4.10;89.80;;;;;;4934709;29;20051;-83
2021/05/06 01:44:26;;;;;;;0.63;0.22;;;4.20;89.50;;;;;;4939453;28;20111;-82
2021/05/06 01:47:08;;;;;;;0.85;0.47;;;4.20;89.40;;;;;;4954455;29;20064;-83
2021/05/06 01:50:00;;;;;;;2.65;0.50;;;4.20;89.30;;;;;;4954020;28;20682;-82
2021/05/06 01:58:19;;;;;;;1.95;0.40;;;4.30;89.60;;;;;;4943852;28;20063;-83
2021/05/06 02:00:54;;;;;;;2.20;0.68;;;4.40;89.80;;;;;;4953161;28;20043;-81
2021/05/06 02:03:24;;;;;;;1.00;0.40;;;4.50;89.60;;;;;;4960361;28;20070;-86
2021/05/06 02:05:54;;;;;;;0.77;0.50;;;4.60;89.50;;;;;;4951878;29;20051;-85
2021/05/06 02:08:23;;;;;;;1.88;0.60;;;4.60;89.00;;;;;;4957775;28;20049;-86
2021/05/06 02:10:56;;;;;;;0.93;0.38;;;4.70;88.80;;;;;;4940553;29;20071;-87
2021/05/06 02:13:36;;;;;;;0.85;0.50;;;4.70;88.50;;;;;;4950937;29;20043;-86
2021/05/06 02:16:15;;;;;;;1.27;0.60;;;4.70;88.10;;;;;;4954999;28;20055;-85
2021/05/06 02:18:42;;;;;;;0.47;0.30;;;4.70;88.00;;;;;;4949036;28;20347;-84
2021/05/06 02:21:15;;;;;;;1.05;0.50;;;4.70;88.10;;;;;;4950887;28;20054;-85
2021/05/06 02:23:43;;;;;;;3.03;0.60;;;4.70;88.20;;;;;;4924672;29;20056;-86
2021/05/06 02:26:10;;;;;;;3.72;0.70;;;4.70;88.30;;;;;;4921718;28;20055;-85
2021/05/06 02:28:38;;;;;;;1.00;0.65;;;4.60;88.60;;;;;;4939454;29;20165;-83
2021/05/06 02:31:05;;;;;;;1.02;0.30;;;4.70;88.90;;;;;;4942268;28;20175;-83
2021/05/06 02:33:32;;;;;;;1.67;0.40;;;4.80;88.80;;;;;;4956620;28;20124;-85
2021/05/06 02:36:00;;;;;;;1.73;0.40;;;4.90;88.60;;;;;;4958959;29;20255;-83
2021/05/06 02:38:31;;;;;;;1.38;0.50;;;5.20;88.20;;;;;;4956519;28;20442;-84
2021/05/06 02:40:59;;;;;;;3.05;0.85;;;5.20;88.10;;;;;;4973308;28;20043;-84
2021/05/06 02:43:26;;;;;;;2.03;0.90;;;5.20;87.50;;;;;;4928551;29;20043;-85
2021/05/06 02:45:53;;;;;;;1.73;0.50;;;5.30;87.10;;;;;;4973769;28;20047;-86
2021/05/06 02:48:20;;;;;;;1.08;0.70;;;5.40;86.60;;;;;;4941924;28;20035;-87
2021/05/06 02:50:52;;;;;;;1.38;0.55;;;5.40;86.30;;;;;;4947798;28;20115;-84
2021/05/06 02:53:23;;;;;;;1.20;0.60;;;5.60;85.00;;;;;;4954516;28;20043;-83
2021/05/06 02:55:58;;;;;;;1.80;0.70;;;5.70;85.40;;;;;;4957316;28;20343;-85
2021/05/06 02:58:42;;;;;;;7.70;1.00;;;5.70;85.20;;;;;;4956979;28;20047;-86
2021/05/06 03:03:59;;;;;;;2.78;0.90;;;5.80;85.00;;;;;;4942423;29;21070;-85
2021/05/06 03:06:32;;;;;;;3.28;0.82;;;5.80;84.90;;;;;;4951655;28;20072;-83
2021/05/06 03:09:03;;;;;;;1.80;0.70;;;5.90;84.80;;;;;;4949777;29;20055;-85
2021/05/06 03:11:41;;;;;;;1.08;0.70;;;5.90;84.70;;;;;;4942475;29;20382;-84
2021/05/06 03:22:42;;;;;;;2.25;0.75;;;5.70;85.30;;;;;;4956306;28;20040;-85
2021/05/06 03:25:13;;;;;;;2.55;0.90;;;5.70;85.80;;;;;;4916753;28;20058;-83
2021/05/06 03:27:46;;;;;;;1.60;0.68;;;5.80;86.00;;;;;;4946793;29;20151;-83
2021/05/06 03:30:34;;;;;;;2.05;0.60;;;5.80;85.80;;;;;;4943356;28;20344;-83
2021/05/06 03:36:00;;;;;;;1.55;0.80;;;5.70;86.20;;;;;;4963130;28;20854;-84
2021/05/06 03:44:09;;;;;;;2.33;0.90;;;5.80;86.10;;;;;;4933502;29;20043;-84
2021/05/06 04:03:43;;;;;;;2.53;0.98;;;5.90;86.10;;;;;;4953913;28;20058;-85
2021/05/06 04:17:18;;;;;;;1.92;0.70;;;6.10;85.20;;;;;;4959502;28;20051;-85
2021/05/06 04:25:43;;;;;;;3.25;1.10;;;6.30;85.10;;;;;;4940721;28;20068;-85
2021/05/06 04:35:25;;;;;;;2.03;0.93;;;6.40;84.70;;;;;;4945699;28;20076;-86
2021/05/06 04:36:55;;;;;;;2.20;0.93;;;6.40;84.00;;;;;;4904676;29;20047;-83
2021/05/06 04:39:30;;;;;;;4.13;1.00;;;6.50;83.90;;;;;;4940158;28;20061;-84
2021/05/06 04:42:18;;;;;;;1.70;0.73;;;6.40;83.60;;;;;;4953503;28;20052;-83
2021/05/06 04:53:37;;;;;;;2.60;1.00;;;6.60;82.90;;;;;;4898294;29;20071;-87
2021/05/06 04:56:13;;;;;;;1.88;1.00;;;6.60;82.20;;;;;;4895661;29;20073;-86
2021/05/06 04:59:04;;;;;;;1.60;0.63;;;6.60;82.30;;;;;;4922886;29;20053;-84
2021/05/06 05:04:25;;;;;;;2.47;0.60;;;6.60;82.70;;;;;;4955129;28;20092;-86
2021/05/06 05:06:56;;;;;;;3.45;1.27;;;6.60;82.40;;;;;;4958467;28;20067;-86
2021/05/06 05:12:21;;;;;;;2.92;1.10;;;6.70;81.80;;;;;;4930027;28;20055;-84
2021/05/06 05:15:03;;;;;;;1.52;0.70;;;6.70;81.80;;;;;;4965932;28;20047;-84
2021/05/06 05:20:22;;;;;;;1.63;0.57;;;6.90;81.10;;;;;;4944436;28;20042;-82
2021/05/06 05:25:36;;;;;;;1.75;0.70;;;7.00;80.00;;;;;;4943405;29;20048;-84
2021/05/06 05:28:05;;;;;;;2.60;1.07;;;7.00;80.20;;;;;;4955394;28;20055;-85
2021/05/06 05:30:35;;;;;;;1.88;0.90;;;6.90;80.30;;;;;;4948759;28;20323;-86
2021/05/06 05:33:09;;;;;;;2.23;0.97;;;6.90;80.60;;;;;;4937536;28;20058;-82
2021/05/06 05:35:39;;;;;;;2.45;0.90;;;7.00;80.70;;;;;;4941549;29;20326;-84
2021/05/06 05:38:13;;;;;;;2.47;0.90;;;7.20;79.80;;;;;;4960465;28;20154;-85
2021/05/06 05:40:47;;;;;;;3.05;0.77;;;7.10;79.00;;;;;;4941981;28;20178;-88
2021/05/06 05:56:55;;;;;;;4.90;1.17;;;7.60;77.00;;;;;;4956161;28;20216;-85
2021/05/06 05:59:23;;;;;;;3.85;1.33;;;7.40;78.30;;;;;;4965604;28;20067;-83
2021/05/06 06:01:50;;;;;;;1.52;0.60;;;7.60;77.80;;;;;;4956044;28;20071;-87
2021/05/06 06:04:17;;;;;;;2.97;1.20;;;7.80;76.60;;;;;;4947008;28;20074;-85
2021/05/06 06:06:44;;;;;;;3.22;0.77;;;7.70;76.50;;;;;;4955838;28;20233;-85
2021/05/06 06:09:11;;;;;;;2.78;0.85;;;7.70;76.90;;;;;;4951809;28;20070;-84
2021/05/06 06:11:39;;;;;;;4.18;1.05;;;7.60;76.00;;;;;;4947735;28;20047;-86
2021/05/06 06:14:08;;;;;;;3.53;1.60;;;7.60;76.40;;;;;;4946913;28;20090;-87
2021/05/06 06:16:38;;;;;;;4.35;1.58;;;7.60;76.20;;;;;;4959904;28;20078;-85
2021/05/06 06:19:05;;;;;;;2.13;0.85;;;7.70;76.30;;;;;;4944156;28;20064;-85
2021/05/06 06:21:39;;;;;;;5.63;1.10;;;7.70;76.70;;;;;;4948595;28;20134;-87
2021/05/06 06:24:07;;;;;;;5.70;1.70;;;7.70;76.30;;;;;;4928604;28;20043;-84
2021/05/06 06:26:34;;;;;;;4.57;1.33;;;7.80;75.70;;;;;;4939934;29;20048;-86
2021/05/06 06:29:06;;;;;;;2.95;1.27;;;7.80;75.40;;;;;;4943996;28;20043;-86
2021/05/06 06:31:38;;;;;;;2.88;1.15;;;7.80;75.70;;;;;;4954696;28;20421;-83
2021/05/06 06:34:09;;;;;;;3.05;1.25;;;7.90;75.20;;;;;;4942942;28;20127;-85
2021/05/06 06:36:38;;;;;;;2.83;1.42;;;8.00;75.30;;;;;;4964425;28;20077;-85
2021/05/06 06:39:06;;;;;;;4.82;1.50;;;8.00;74.80;;;;;;4957451;28;20047;-83
2021/05/06 06:41:34;;;;;;;1.98;0.98;;;7.90;74.70;;;;;;4956646;28;20043;-83
2021/05/06 06:44:04;;;;;;;3.90;2.28;;;8.00;74.90;;;;;;4946239;28;20075;-83
2021/05/06 06:46:31;;;;;;;3.85;1.02;;;8.00;74.20;;;;;;4956118;28;20114;-86
2021/05/06 06:49:00;;;;;;;3.90;1.27;;;8.10;73.70;;;;;;4943625;29;20111;-85
2021/05/06 06:51:29;;;;;;;3.55;2.17;;;8.30;73.60;;;;;;4928322;29;20051;-84
2021/05/06 06:53:56;;;;;;;6.68;1.30;;;8.20;74.10;;;;;;4938438;28;20052;-84
2021/05/06 06:56:23;;;;;;;2.45;0.88;;;8.40;73.40;;;;;;4939938;28;20056;-84
2021/05/06 06:58:52;;;;;;;4.28;1.10;;;8.60;73.10;;;;;;4956705;28;20114;-83
2021/05/06 07:01:20;;;;;;;2.30;1.05;;;8.70;71.20;;;;;;4948618;28;20067;-85
2021/05/06 07:03:47;;;;;;;4.70;1.13;;;8.70;70.60;;;;;;4948629;28;20106;-85
2021/05/06 07:06:15;;;;;;;2.33;0.70;;;8.80;71.60;;;;;;4947156;28;20228;-85
2021/05/06 07:08:44;;;;;;;6.68;1.15;;;8.90;70.30;;;;;;4934195;29;20051;-85
2021/05/06 07:11:11;;;;;;;3.13;1.00;;;8.80;70.10;;;;;;4934684;28;20077;-85
2021/05/06 07:13:38;;;;;;;4.18;1.25;;;8.90;70.70;;;;;;4951905;28;20052;-85
2021/05/06 07:16:08;;;;;;;2.92;0.93;;;8.80;69.20;;;;;;4956053;28;20086;-86
2021/05/06 07:18:36;;;;;;;4.68;1.10;;;8.70;69.70;;;;;;4947061;29;20174;-84
2021/05/06 07:21:09;;;;;;;2.17;1.10;;;8.80;69.60;;;;;;4929190;28;20115;-84
2021/05/06 07:23:38;;;;;;;2.25;0.77;;;9.10;69.60;;;;;;4951069;29;20127;-84
2021/05/06 07:26:06;;;;;;;6.03;1.23;;;9.20;69.70;;;;;;4953890;28;20070;-86
2021/05/06 07:28:35;;;;;;;2.47;1.08;;;9.20;68.50;;;;;;4944296;28;20057;-84
2021/05/06 07:31:10;;;;;;;2.72;1.00;;;9.20;67.70;;;;;;4954869;28;20047;-84
2021/05/06 07:33:39;;;;;;;4.75;1.27;;;9.10;68.20;;;;;;4946123;29;20752;-85
2021/05/06 07:36:07;;;;;;;2.58;1.00;;;9.10;68.30;;;;;;4952592;28;20305;-84
2021/05/06 07:38:35;;;;;;;2.08;1.10;;;8.90;67.90;;;;;;4968253;28;20055;-85
2021/05/06 07:41:04;;;;;;;2.92;0.80;;;8.80;68.30;;;;;;4962132;28;20055;-84
2021/05/06 07:43:31;;;;;;;3.63;1.20;;;8.80;69.10;;;;;;4954140;28;20071;-84
2021/05/06 07:45:59;;;;;;;3.67;0.93;;;8.60;69.60;;;;;;4954222;28;20055;-85
2021/05/06 07:48:32;;;;;;;3.15;1.15;;;8.50;69.50;;;;;;4955719;28;20065;-84
2021/05/06 07:51:01;;;;;;;2.83;0.73;;;8.70;69.60;;;;;;4952383;28;20071;-85
2021/05/06 07:53:38;;;;;;;4.60;1.30;;;8.70;69.20;;;;;;4953675;28;21259;-85
2021/05/06 07:56:06;;;;;;;4.03;1.48;;;8.70;70.00;;;;;;4951801;28;20051;-86
2021/05/06 07:58:33;;;;;;;3.35;1.60;;;8.50;71.00;;;;;;4955654;28;20237;-85
2021/05/06 08:01:00;;;;;;;2.40;1.33;;;8.50;70.70;;;;;;4950023;28;20078;-83
2021/05/06 08:03:28;;;;;;;2.10;0.90;;;8.50;70.70;;;;;;4930823;29;20102;-85
2021/05/06 08:05:57;;;;;;;1.48;0.70;;;8.20;71.20;;;;;;4948523;28;20073;-84
2021/05/06 08:08:40;;;;;;;1.90;0.88;;;8.40;71.10;;;;;;5128637;27;902480;-83
2021/05/06 08:11:09;;;;;;;1.85;0.77;;;8.40;71.10;;;;;;5132816;27;20105;-83
2021/05/06 08:13:36;;;;;;;3.15;0.85;;;8.40;71.10;;;;;;5134998;27;20055;-85
2021/05/06 08:16:04;;;;;;;2.20;0.95;;;8.50;71.10;;;;;;5135872;27;20050;-86
2021/05/06 08:18:31;;;;;;;2.53;1.02;;;8.40;70.50;;;;;;5095876;28;20071;-85
2021/05/06 08:20:59;;;;;;;3.92;0.90;;;8.20;70.90;;;;;;5097514;28;20134;-85
2021/05/06 08:23:26;;;;;;;2.67;0.80;;;8.20;71.00;;;;;;5092983;28;20044;-83
2021/05/06 08:25:54;;;;;;;3.28;1.10;;;8.20;71.40;;;;;;5071339;28;20374;-82
2021/05/06 08:28:22;;;;;;;1.83;0.65;;;8.20;71.00;;;;;;5099187;28;20219;-85
2021/05/06 08:30:49;;;;;;;7.95;1.42;;;8.30;71.50;;;;;;5095002;28;20059;-85
2021/05/06 08:33:16;;;;;;;2.25;0.85;;;8.30;71.80;;;;;;5110974;28;20090;-85
2021/05/06 08:35:43;;;;;;;4.60;1.23;;;8.10;72.00;;;;;;5116841;28;20478;-85
2021/05/06 08:38:10;;;;;;;9.07;1.63;;;8.10;72.50;;;;;;5093040;28;20044;-85
2021/05/06 08:40:37;;;;;;;2.50;0.90;;;8.20;72.20;;;;;;5115775;28;20066;-84
2021/05/06 08:43:08;;;;;;;11.77;1.33;;;8.10;73.00;;;;;;5112681;28;20052;-86
2021/05/06 08:45:42;;;;;;;3.58;0.75;;;8.20;72.00;;;;;;5097679;28;20058;-83
2021/05/06 08:48:12;;;;;;;3.88;0.73;;;8.10;72.50;;;;;;5095538;28;20418;-82
2021/05/06 08:50:40;;;;;;;1.87;0.87;;;8.20;72.80;;;;;;5074564;28;20040;-84
2021/05/06 08:53:09;;;;;;;3.05;1.05;;;8.30;72.80;;;;;;5096344;28;20048;-84
2021/05/06 08:55:41;;;;;;;3.90;1.20;;;8.40;71.80;;;;;;5094436;28;20096;-84
2021/05/06 08:58:09;;;;;;;5.18;1.50;;;8.40;72.30;;;;;;5111593;28;20328;-86
2021/05/06 09:00:36;;;;;;;6.28;1.00;;;8.60;72.90;;;;;;5111045;28;20324;-83
2021/05/06 09:03:04;;;;;;;3.65;0.82;;;8.60;72.60;;;;;;5096798;28;20043;-81
2021/05/06 09:05:35;;;;;;;3.42;0.90;;;8.60;72.80;;;;;;5092106;28;20539;-83
2021/05/06 09:08:03;;;;;;;1.83;0.80;;;8.60;72.50;;;;;;5079469;28;20059;-85
2021/05/06 09:10:36;;;;;;;2.60;1.02;;;8.70;71.80;;;;;;5084964;28;20674;-84
2021/05/06 09:13:24;;;;;;;1.63;0.65;;;8.70;72.30;;;;;;5112086;28;20085;-83
2021/05/06 09:15:52;;;;;;;2.80;0.93;;;8.90;72.30;;;;;;5108434;28;20052;-83
2021/05/06 09:18:38;;;;;;;3.45;1.10;;;8.80;72.10;;;;;;5103866;28;20047;-84
2021/05/06 09:21:09;;;;;;;4.93;0.88;;;9.00;72.30;;;;;;5078723;28;20040;-82
2021/05/06 09:23:37;;;;;;;3.88;0.70;;;9.10;71.30;;;;;;5084426;28;20377;-84
2021/05/06 09:26:08;;;;;;;8.38;1.60;;;9.30;70.90;;;;;;5062467;28;20055;-84
2021/05/06 09:28:36;;;;;;;3.58;0.85;;;9.30;70.90;;;;;;5063296;28;20069;-84
2021/05/06 09:31:06;;;;;;;1.65;0.70;;;9.40;70.00;;;;;;5098136;28;20048;-83
2021/05/06 09:33:35;;;;;;;2.05;0.80;;;9.60;69.30;;;;;;5081894;28;20048;-82
2021/05/06 09:36:11;;;;;;;3.17;1.00;;;9.70;68.70;;;;;;5082122;28;20146;-82
2021/05/06 09:38:42;;;;;;;5.45;1.02;;;9.70;68.60;;;;;;5095144;28;20075;-83
2021/05/06 09:41:10;;;;;;;4.25;1.23;;;10.00;68.30;;;;;;5081256;28;20060;-84
2021/05/06 09:43:40;;;;;;;2.53;1.00;;;10.30;66.20;;;;;;5097881;28;20047;-84
2021/05/06 09:46:28;;;;;;;6.22;1.05;;;10.50;65.70;;;;;;5081291;28;20052;-85
2021/05/06 09:48:57;;;;;;;3.20;1.20;;;10.60;66.00;;;;;;5094141;28;20048;-83
2021/05/06 09:51:47;;;;;;;5.70;0.90;;;10.20;65.00;;;;;;5078012;28;20069;-83
2021/05/06 09:54:16;;;;;;;2.53;0.90;;;9.90;66.20;;;;;;5090915;28;20056;-86
2021/05/06 09:56:44;;;;;;;1.88;0.88;;;9.70;66.20;;;;;;5068961;28;20032;-82
2021/05/06 09:59:21;;;;;;;2.92;0.85;;;9.80;66.20;;;;;;5081333;28;20075;-83
2021/05/06 10:01:50;;;;;;;2.97;1.10;;;10.00;65.70;;;;;;5052457;28;20523;-85
2021/05/06 10:04:19;;;;;;;2.00;1.10;;;10.00;66.20;;;;;;5055598;28;20043;-83
2021/05/06 10:07:08;;;;;;;1.80;0.77;;;9.80;66.00;;;;;;5077221;28;20041;-83
2021/05/06 10:09:48;;;;;;;2.08;1.30;;;10.10;66.10;;;;;;5086546;28;20473;-88
2021/05/06 10:12:15;;;;;;;2.85;1.17;;;10.00;64.60;;;;;;5075138;28;20052;-85
2021/05/06 10:14:45;;;;;;;2.58;1.00;;;10.40;65.60;;;;;;5073021;28;20376;-83
2021/05/06 10:17:14;;;;;;;3.08;1.20;;;10.40;66.20;;;;;;5094059;28;20221;-84
2021/05/06 10:19:44;;;;;;;1.25;0.73;;;11.30;61.60;;;;;;5097380;28;20365;-83
2021/05/06 10:22:13;;;;;;;4.03;1.00;;;11.40;61.80;;;;;;5099611;28;20239;-83
2021/05/06 10:24:42;;;;;;;4.15;1.33;;;12.40;58.20;;;;;;5096462;28;20062;-82
2021/05/06 10:27:12;;;;;;;3.63;1.23;;;11.80;58.60;;;;;;5064870;28;20056;-83
2021/05/06 10:29:40;;;;;;;3.97;1.00;;;11.40;60.60;;;;;;5088072;28;20063;-84
2021/05/06 10:32:09;;;;;;;4.38;1.27;;;11.10;62.60;;;;;;5060805;28;20044;-84
2021/05/06 10:34:38;;;;;;;3.78;1.17;;;10.90;62.80;;;;;;5079355;28;20063;-83
2021/05/06 10:37:06;;;;;;;2.42;1.15;;;12.10;59.40;;;;;;5061231;28;20039;-84
2021/05/06 10:39:37;;;;;;;2.72;0.95;;;14.10;53.80;;;;;;5075900;28;20039;-83
2021/05/06 10:42:35;;;;;;;8.32;1.38;;;13.40;53.40;;;;;;5094958;28;20073;-84
2021/05/06 10:45:32;;;;;;;2.90;1.35;;;12.90;54.80;;;;;;5011566;28;20094;-84
2021/05/06 10:47:59;;;;;;;2.13;0.90;;;13.40;52.60;;;;;;5070708;28;20234;-85
2021/05/06 10:50:37;;;;;;;3.20;1.08;;;13.60;52.50;;;;;;5096294;28;20054;-84
2021/05/06 10:53:06;;;;;;;4.43;1.90;;;13.50;53.50;;;;;;5096905;28;20048;-83
2021/05/06 10:55:42;;;;;;;4.57;1.83;;;12.80;53.90;;;;;;5094010;28;20055;-84
2021/05/06 10:58:36;;;;;;;4.03;1.00;;;13.70;51.10;;;;;;5079030;28;20048;-84
2021/05/06 11:01:41;;;;;;;5.55;1.40;;;12.90;54.00;;;;;;5053990;28;20048;-85
2021/05/06 11:04:11;;;;;;;2.65;1.40;;;12.70;54.80;;;;;;5065293;28;20083;-85
2021/05/06 11:06:40;;;;;;;;;;;12.70;54.80;;;;;;5095170;28;20634;-83
2021/05/06 11:09:52;;;;;;;1.85;1.20;;;12.60;54.90;;;;;;5081925;28;19946;-84
2021/05/06 11:12:36;;;;;;;4.82;1.38;;;12.10;56.10;;;;;;5077340;28;20055;-84
2021/05/06 11:15:33;;;;;;;3.92;1.50;;;14.90;50.40;;;;;;5079462;28;20063;-83
2021/05/06 11:18:02;;;;;;;5.45;1.60;;;15.40;46.80;;;;;;5079818;28;20111;-83
2021/05/06 11:20:55;;;;;;;5.07;1.10;;;18.00;39.80;;;;;;5075751;28;20598;-84
2021/05/06 11:23:37;;;;;;;3.83;1.58;;;19.50;36.00;;;;;;5071181;28;20055;-82
2021/05/06 11:26:14;;;;;;;3.15;1.20;;;17.90;36.70;;;;;;5085364;28;20048;-83
2021/05/06 11:28:43;;;;;;;4.30;1.30;;;16.60;39.90;;;;;;5077556;28;20071;-82
2021/05/06 11:31:10;;;;;;;2.28;1.38;;;18.00;36.90;;;;;;5094961;28;20044;-82
2021/05/06 11:33:38;;;;;;;5.43;1.50;;;17.30;38.50;;;;;;5096839;28;20067;-82
2021/05/06 11:36:08;;;;;;;5.70;1.65;;;16.50;40.50;;;;;;5065633;28;20044;-82
2021/05/06 11:38:47;;;;;;;2.15;1.15;;;15.70;41.20;;;;;;5067850;28;20047;-82
2021/05/06 11:41:26;;;;;;;3.60;1.30;;;15.50;39.80;;;;;;5069644;28;20090;-82
2021/05/06 11:43:54;;;;;;;2.78;1.27;;;15.20;39.50;;;;;;5092400;28;20048;-83
2021/05/06 11:46:23;;;;;;;4.07;1.17;;;15.20;39.80;;;;;;5078387;28;20048;-85
2021/05/06 11:48:51;;;;;;;3.55;1.70;;;15.60;39.60;;;;;;5089818;28;20083;-84
2021/05/06 11:51:28;;;;;;;5.00;1.40;;;14.90;41.20;;;;;;5092948;28;20099;-82
2021/05/06 11:54:05;;;;;;;3.08;1.17;;;16.60;38.80;;;;;;5054557;28;20047;-82
2021/05/06 11:56:33;;;;;;;2.45;1.05;;;18.70;34.40;;;;;;5059945;28;20051;-82
2021/05/06 11:59:06;;;;;;;2.42;0.90;;;18.90;32.30;;;;;;5064493;28;20054;-85
2021/05/06 12:01:35;;;;;;;3.13;1.08;;;19.70;30.20;;;;;;5088133;28;20376;-85
2021/05/06 12:04:02;;;;;;;3.42;1.20;;;17.70;32.90;;;;;;5074924;28;20048;-82
2021/05/06 12:06:32;;;;;;;5.60;1.10;;;16.20;36.40;;;;;;5055333;28;20212;-84
2021/05/06 12:09:00;;;;;;;3.47;1.73;;;16.50;36.80;;;;;;5065056;28;20036;-83
2021/05/06 12:11:39;;;;;;;3.38;0.95;;;17.60;35.20;;;;;;5092410;28;20522;-82
2021/05/06 12:14:07;;;;;;;2.55;1.00;;;18.30;33.00;;;;;;5093482;28;20039;-86
2021/05/06 12:16:36;;;;;;;2.33;1.10;;;17.70;34.20;;;;;;5096352;28;20047;-83
2021/05/06 12:19:09;;;;;;;3.55;1.23;;;18.50;33.30;;;;;;5084677;28;20047;-85
2021/05/06 12:21:43;;;;;;;3.08;0.98;;;19.50;30.40;;;;;;5082233;28;20310;-83
2021/05/06 12:24:13;;;;;;;1.77;0.90;;;19.60;31.60;;;;;;5080515;28;20051;-84
2021/05/06 12:26:42;;;;;;;3.13;1.88;;;17.60;34.80;;;;;;5074633;28;20081;-82
2021/05/06 12:29:20;;;;;;;4.55;1.23;;;17.00;35.40;;;;;;5092335;28;20040;-82
2021/05/06 12:31:49;;;;;;;3.00;1.10;;;16.90;36.20;;;;;;5091995;28;20431;-83
2021/05/06 12:34:18;;;;;;;4.57;1.70;;;15.70;40.50;;;;;;5092291;28;20056;-81
2021/05/06 12:36:51;;;;;;;3.50;1.13;;;14.80;43.80;;;;;;5074352;28;20085;-82
2021/05/06 12:39:20;;;;;;;3.42;1.20;;;14.00;45.60;;;;;;5074334;28;20059;-83
2021/05/06 12:41:53;;;;;;;1.88;1.30;;;13.70;47.00;;;;;;5083809;28;20044;-82
2021/05/06 12:44:37;;;;;;;2.47;1.08;;;13.60;47.00;;;;;;5077132;28;20059;-83
2021/05/06 12:47:27;;;;;;;6.35;1.30;;;13.80;46.60;;;;;;5089809;28;20036;-83
2021/05/06 12:50:11;;;;;;;2.45;1.02;;;14.60;44.90;;;;;;5071796;28;20044;-82
2021/05/06 12:52:42;;;;;;;3.30;1.20;;;14.80;44.80;;;;;;5072946;28;21307;-82
2021/05/06 12:55:19;;;;;;;3.70;1.23;;;15.00;43.70;;;;;;5079139;28;20079;-84
2021/05/06 12:58:03;;;;;;;5.13;1.27;;;15.20;43.10;;;;;;5060708;28;20048;-84
2021/05/06 13:00:37;;;;;;;5.10;1.10;;;15.40;42.10;;;;;;5092922;28;20655;-84
2021/05/06 13:03:08;;;;;;;3.58;1.45;;;15.20;43.20;;;;;;5079017;28;20059;-84
2021/05/06 13:05:35;;;;;;;;;;;14.50;44.20;;;;;;5095522;28;20044;-83
2021/05/06 13:08:06;;;;;;;2.45;1.02;;;13.90;45.60;;;;;;5079682;28;19924;-86
2021/05/06 13:10:36;;;;;;;2.83;1.00;;;13.50;46.20;;;;;;5064731;28;21200;-84
2021/05/06 13:13:09;;;;;;;4.20;1.40;;;13.10;48.10;;;;;;5084511;28;20075;-84
2021/05/06 13:15:46;;;;;;;3.47;1.20;;;12.70;48.80;;;;;;5069288;28;20095;-86
2021/05/06 13:18:14;;;;;;;4.85;1.55;;;12.70;49.50;;;;;;5066485;28;20366;-85
2021/05/06 13:20:42;;;;;;;2.20;1.23;;;12.70;49.70;;;;;;5086749;28;20349;-86
2021/05/06 13:23:22;;;;;;;2.13;1.23;;;13.00;49.20;;;;;;5094710;28;20052;-85
2021/05/06 13:25:51;;;;;;;3.30;1.20;;;12.80;49.40;;;;;;5098867;28;20370;-83
2021/05/06 13:28:40;;;;;;;2.58;1.38;;;12.70;49.90;;;;;;5078815;28;20247;-83
2021/05/06 13:31:08;;;;;;;3.08;0.90;;;12.60;50.40;;;;;;5081514;28;20044;-84
2021/05/06 13:33:37;;;;;;;3.97;1.52;;;12.50;50.00;;;;;;5081610;28;20251;-85
2021/05/06 13:36:08;;;;;;;3.08;1.05;;;12.20;51.50;;;;;;5097680;28;20362;-84
2021/05/06 13:38:48;;;;;;;;;;;12.40;50.80;;;;;;5084770;28;20243;-83
2021/05/06 13:41:15;;;;;;;3.42;1.05;;;12.40;51.30;;;;;;5078763;28;19924;-85
2021/05/06 13:43:44;;;;;;;3.03;1.02;;;12.00;51.70;;;;;;5067959;28;20052;-84
2021/05/06 13:46:11;;;;;;;2.45;1.05;;;12.10;51.30;;;;;;5061838;28;20058;-85
2021/05/06 13:48:39;;;;;;;2.53;1.17;;;12.20;51.10;;;;;;5084220;28;20073;-84
2021/05/06 13:51:09;;;;;;;4.00;1.15;;;11.90;51.80;;;;;;5070117;28;20115;-83
2021/05/06 13:53:36;;;;;;;2.30;0.90;;;11.90;52.30;;;;;;5084826;28;20051;-83
2021/05/06 13:56:05;;;;;;;1.73;0.88;;;11.70;52.60;;;;;;5075076;28;20081;-85
2021/05/06 13:58:32;;;;;;;2.30;1.10;;;11.70;53.50;;;;;;5077059;28;20060;-86
2021/05/06 14:01:03;;;;;;;2.83;1.00;;;11.80;53.50;;;;;;5091399;28;20040;-85
2021/05/06 14:03:31;;;;;;;2.22;0.95;;;11.90;53.50;;;;;;5067811;28;20339;-83
2021/05/06 14:05:59;;;;;;;1.85;1.00;;;11.90;53.80;;;;;;5094149;28;20044;-83
2021/05/06 14:08:26;;;;;;;1.85;0.90;;;11.60;54.40;;;;;;5073635;28;20084;-84
2021/05/06 14:10:54;;;;;;;3.67;1.15;;;11.50;53.80;;;;;;5078376;28;20233;-84
2021/05/06 14:13:22;;;;;;;3.85;1.30;;;11.50;54.80;;;;;;5076825;28;20052;-84
2021/05/06 14:15:50;;;;;;;1.95;0.77;;;11.70;54.50;;;;;;5095664;28;20347;-84
2021/05/06 14:18:18;;;;;;;2.75;1.10;;;11.50;54.60;;;;;;5077021;28;20056;-84
2021/05/06 14:20:48;;;;;;;4.60;1.42;;;11.40;55.60;;;;;;5095198;28;20055;-87
2021/05/06 14:23:16;;;;;;;3.75;1.70;;;11.40;58.00;;;;;;5093593;28;20048;-83
2021/05/06 14:25:44;;;;;;;3.75;1.50;;;11.30;59.00;;;;;;5062180;28;20355;-85
2021/05/06 14:28:11;;;;;;;2.35;1.27;;;11.30;59.80;;;;;;5078693;28;20060;-84
2021/05/06 14:30:38;;;;;;;3.22;1.23;;;11.20;60.20;;;;;;5078668;28;20331;-83
2021/05/06 14:33:06;;;;;;;4.80;1.73;;;11.20;61.40;;;;;;5097419;28;20047;-84
2021/05/06 14:35:34;;;;;;;4.50;1.30;;;11.20;60.30;;;;;;5079151;28;20059;-84
2021/05/06 14:38:07;;;;;;;4.68;1.35;;;11.00;61.80;;;;;;5094706;28;20059;-84
2021/05/06 14:40:34;;;;;;;4.40;1.38;;;11.10;63.60;;;;;;5091528;28;21035;-85
2021/05/06 14:43:02;;;;;;;4.97;1.10;;;11.10;64.40;;;;;;5057376;28;20108;-86
2021/05/06 14:45:35;;;;;;;4.18;1.05;;;10.60;64.50;;;;;;5077375;28;20384;-85
2021/05/06 14:48:07;;;;;;;3.00;1.13;;;10.50;66.80;;;;;;5069951;28;20450;-85
2021/05/06 14:50:35;;;;;;;3.03;1.13;;;10.40;67.20;;;;;;5092638;28;20391;-85
2021/05/06 14:53:04;;;;;;;1.70;1.00;;;10.30;67.50;;;;;;5095547;28;20056;-84
2021/05/06 14:55:31;;;;;;;3.13;1.25;;;10.30;68.80;;;;;;5094071;28;20826;-86
2021/05/06 14:57:59;;;;;;;3.03;1.00;;;10.20;69.80;;;;;;5096171;28;20090;-82
2021/05/06 15:00:26;;;;;;;2.47;1.10;;;10.20;68.00;;;;;;5088374;28;20051;-84
2021/05/06 15:02:53;;;;;;;3.70;1.33;;;10.40;69.70;;;;;;5076439;28;20137;-84
2021/05/06 15:05:22;;;;;;;3.17;0.90;;;10.50;68.00;;;;;;5084330;28;20070;-84
2021/05/06 15:07:50;;;;;;;1.17;0.60;;;10.70;67.90;;;;;;5089921;28;20051;-84
2021/05/06 15:10:17;;;;;;;2.00;1.02;;;10.70;65.90;;;;;;5073631;28;20071;-83
2021/05/06 15:12:46;;;;;;;2.80;1.15;;;10.70;66.90;;;;;;5076737;28;20343;-86
2021/05/06 15:15:17;;;;;;;2.38;1.08;;;10.80;66.00;;;;;;5053500;28;20102;-83
2021/05/06 15:17:45;;;;;;;4.18;1.00;;;11.10;66.00;;;;;;5067529;28;20056;-83
2021/05/06 15:20:13;;;;;;;2.70;1.20;;;11.10;65.80;;;;;;5078080;28;20040;-83
2021/05/06 15:22:40;;;;;;;3.97;1.70;;;11.10;65.80;;;;;;5096010;28;20111;-84
2021/05/06 15:25:14;;;;;;;4.88;1.50;;;11.10;66.30;;;;;;5095784;28;20225;-85
2021/05/06 15:27:42;;;;;;;1.67;1.00;;;11.20;65.70;;;;;;5074482;28;20036;-85
2021/05/06 15:30:12;;;;;;;1.77;0.80;;;11.10;66.50;;;;;;5092757;28;20052;-84
2021/05/06 15:32:39;;;;;;;3.80;1.48;;;11.10;65.10;;;;;;5050151;28;20319;-86
2021/05/06 15:35:09;;;;;;;2.30;1.25;;;11.00;69.20;;;;;;5049495;28;20040;-85
2021/05/06 15:37:36;;;;;;;3.05;0.95;;;10.70;68.40;;;;;;5052672;28;20354;-84
2021/05/06 15:40:06;;;;;;;3.92;1.42;;;10.50;68.90;;;;;;5074707;28;20104;-84
2021/05/06 15:42:36;;;;;;;4.07;1.00;;;10.50;70.10;;;;;;5089573;28;20116;-85
2021/05/06 15:45:05;;;;;;;2.90;1.20;;;10.30;71.80;;;;;;5063474;28;20125;-84
2021/05/06 15:47:32;;;;;;;3.50;1.05;;;10.10;70.80;;;;;;5071885;28;20343;-87